バンギ の空港の天気 - METARとTAF

バンギ・ムポコ国際空港 ( FEFF / BGF ) - 中央アフリカ バンギ
飛行場実況気象(Metar)
観測時間07/19 04:00 WAT (07/19 03:00 UTC)
風向・風速不定 1m/s
視程10km以上
天気現象
なし
気温22℃
湿度100%
気圧1012hPa
METARFEFF 190300Z VRB02KT CAVOK 22/22 Q1012 NOSIG
過去の天気等 Google飛行場航空写真 Wunderground天気予報

過去48時間のMETAR

飛行場予報(TAF)
発表時間: 7/19 00:00 WAT (7/18 23:00 UTC)
予報対象時間: 19日1時 WAT ~ 20日7時 WAT
風向・風速不定 2m/s
視程8000m
少しの雲 雲底高度 300m
19日4時 WAT ~ 19日6時 WAT に徐々に
視程3000m
天気現象もや
全天の8割程度の雲 雲底高度 120m
19日11時 WAT から
風向・風速南西 3m/s
視程10km以上
全天の8割程度の雲 雲底高度 610m
TAF FEFF 182300Z 1900/2006 VRB03KT 8000 FEW010
BECMG 1903/1905 3000 BR BKN004
PROB30 TEMPO 0800 FG
FM191000 22006KT 9999 BKN020